Glenpool, Oklahoma
Current Conditions -  °F | °C
As of 11:53 PM on Friday 28 Nov 2014 (Local Time) from KRVS Reporting Station
Clear Clear  
Wind Chill: 57°   Ceiling: Unl
Heat Index: 57°   Visibility: 10mi
Dew Point: 48°   Wind: 9mph
Humidity: 72%   Direction: 190°S
Pressure: 29.83"   Gusts: NA
Location:  35.95°N, 96.01°W
Report Text: KRVS 290553Z 19008KT 10SM CLR 14/09 A2983 RMK AO2 SLP110 T01390089 10167 20133 401891006 58019
Loading
Personal Weather Stations






























Interactive Weather Map New forecast layout! Learn more

10-Day Weather Forecast

Advertisements
Track Severe Weather on mobile